Terminal Aerodrome Forecast
Issued by NWS Quad Cities IA IL

Home | Current Version | Previous Version | Text Only | Print | Product List | Glossary On
Versions: 1 2 3 4 5 6 7 8 9 10 11 12 13 14 15 16 17 18 19 20 21 22 23 24 25 26 27
000
FTUS43 KDVN 271100 AAA
TAFMLI
TAF AMD
KMLI 271155Z 2712/2812 30012KT P6SM BKN025
      TEMPO 2712/2714 5SM -SN OVC018
     FM271500 31012KT P6SM SCT030
     FM280000 VRB02KT P6SM BKN100=

USA.gov is the U.S. government's official web portal to all federal, state and local government web resources and services.